TVS1DE LKPR-LDSP
Flight info
| Callsign | TVS1DE |
|---|---|
| Flight time | N/A |
| Altitude | 35000 |
| Route | VOZ DCT PISAM DCT PETOV DCT NIVES DCT NUPSO |
| Aircraft | B738/M-SDFGHIJ1LORVWXYZ/LB1 |
Departure
| Time | 2026-05-04 12:54 |
|---|---|
| Airport | Václav Havel Airport Prague (LKPR) |
Arrival
| Time | N/A |
|---|---|
| Airport | Split Saint Jerome Airport (LDSP) |
| Time | Latitude | Longitude | Altitude | Speed | Heading |
|---|---|---|---|---|---|
| 2026-05-04 12:33 | 50.10364 | 14.26741 | 1173 ft | 0 kts | 34° |
| 2026-05-04 12:43 | 50.10363 | 14.26740 | 1173 ft | 2 kts | 34° |
| 2026-05-04 12:43 | 50.10342 | 14.26720 | 1190 ft | 4 kts | 20° |
| 2026-05-04 12:44 | 50.10330 | 14.26715 | 1162 ft | 4 kts | 329° |
| 2026-05-04 12:44 | 50.10326 | 14.26721 | 1162 ft | 1 kts | 304° |
| 2026-05-04 12:47 | 50.10328 | 14.26715 | 1163 ft | 3 kts | 304° |
| 2026-05-04 12:47 | 50.10345 | 14.26675 | 1169 ft | 5 kts | 301° |
| 2026-05-04 12:48 | 50.10343 | 14.26623 | 1171 ft | 5 kts | 237° |
| 2026-05-04 12:48 | 50.10311 | 14.26583 | 1172 ft | 6 kts | 215° |
| 2026-05-04 12:48 | 50.10276 | 14.26544 | 1173 ft | 6 kts | 215° |
| 2026-05-04 12:48 | 50.10238 | 14.26529 | 1175 ft | 6 kts | 165° |
| 2026-05-04 12:49 | 50.10205 | 14.26586 | 1174 ft | 9 kts | 128° |
| 2026-05-04 12:49 | 50.10154 | 14.26692 | 1176 ft | 16 kts | 126° |
| 2026-05-04 12:49 | 50.10085 | 14.26835 | 1186 ft | 16 kts | 126° |
| 2026-05-04 12:49 | 50.10017 | 14.26977 | 1194 ft | 17 kts | 128° |
| 2026-05-04 12:50 | 50.09940 | 14.27135 | 1199 ft | 19 kts | 129° |
| 2026-05-04 12:50 | 50.09863 | 14.27296 | 1201 ft | 18 kts | 130° |
| 2026-05-04 12:50 | 50.09775 | 14.27434 | 1204 ft | 18 kts | 132° |
| 2026-05-04 12:50 | 50.09690 | 14.27567 | 1205 ft | 17 kts | 136° |
| 2026-05-04 12:51 | 50.09607 | 14.27693 | 1209 ft | 16 kts | 136° |
| 2026-05-04 12:51 | 50.09527 | 14.27816 | 1212 ft | 16 kts | 135° |
| 2026-05-04 12:51 | 50.09451 | 14.27934 | 1214 ft | 16 kts | 135° |
| 2026-05-04 12:51 | 50.09367 | 14.28060 | 1214 ft | 19 kts | 136° |
| 2026-05-04 12:52 | 50.09280 | 14.28190 | 1213 ft | 11 kts | 136° |
| 2026-05-04 12:52 | 50.09219 | 14.28273 | 1211 ft | 12 kts | 152° |
| 2026-05-04 12:52 | 50.09140 | 14.28259 | 1210 ft | 12 kts | 213° |
| 2026-05-04 12:52 | 50.09091 | 14.28184 | 1209 ft | 8 kts | 228° |
| 2026-05-04 12:53 | 50.09069 | 14.28114 | 1207 ft | 5 kts | 279° |
| 2026-05-04 12:53 | 50.09077 | 14.28093 | 1207 ft | 0 kts | 306° |
| 2026-05-04 12:53 | 50.09211 | 14.27819 | 1210 ft | 68 kts | 307° |
| 2026-05-04 12:53 | 50.09642 | 14.26933 | 1206 ft | 135 kts | 307° |
| 2026-05-04 12:54 | 50.10318 | 14.25566 | 1291 ft | 179 kts | 308° |
| 2026-05-04 12:54 | 50.11046 | 14.24045 | 2229 ft | 173 kts | 306° |
| 2026-05-04 12:54 | 50.11804 | 14.22453 | 2718 ft | 196 kts | 306° |
| 2026-05-04 12:54 | 50.12674 | 14.20637 | 2999 ft | 222 kts | 306° |
| 2026-05-04 12:55 | 50.13644 | 14.18620 | 3294 ft | 244 kts | 307° |
| 2026-05-04 12:55 | 50.14713 | 14.16405 | 3772 ft | 261 kts | 306° |
| 2026-05-04 12:55 | 50.15814 | 14.14122 | 4696 ft | 262 kts | 306° |
| 2026-05-04 12:55 | 50.16919 | 14.11829 | 5532 ft | 268 kts | 306° |
| 2026-05-04 12:56 | 50.17906 | 14.09370 | 6407 ft | 268 kts | 287° |
| 2026-05-04 12:56 | 50.18109 | 14.06528 | 7266 ft | 265 kts | 261° |
| 2026-05-04 12:56 | 50.17463 | 14.03846 | 8025 ft | 268 kts | 236° |
| 2026-05-04 12:56 | 50.16105 | 14.01863 | 8780 ft | 271 kts | 210° |
| 2026-05-04 12:57 | 50.14300 | 14.01014 | 9613 ft | 277 kts | 185° |
| 2026-05-04 12:57 | 50.12388 | 14.01527 | 10339 ft | 288 kts | 160° |
| 2026-05-04 12:57 | 50.10607 | 14.03231 | 10560 ft | 316 kts | 144° |
| 2026-05-04 12:57 | 50.08904 | 14.05594 | 10780 ft | 339 kts | 139° |
| 2026-05-04 12:58 | 50.07194 | 14.08209 | 11288 ft | 349 kts | 138° |
| 2026-05-04 12:58 | 50.05461 | 14.10904 | 11948 ft | 354 kts | 138° |
| 2026-05-04 12:58 | 50.03710 | 14.13607 | 12675 ft | 357 kts | 138° |
| 2026-05-04 12:58 | 50.01947 | 14.16293 | 13418 ft | 360 kts | 139° |
| 2026-05-04 12:59 | 50.00141 | 14.19015 | 14142 ft | 363 kts | 139° |
| 2026-05-04 12:59 | 49.98307 | 14.21752 | 14844 ft | 367 kts | 139° |
| 2026-05-04 12:59 | 49.96453 | 14.24503 | 15550 ft | 370 kts | 139° |
| 2026-05-04 12:59 | 49.94574 | 14.27281 | 16216 ft | 375 kts | 139° |
| 2026-05-04 13:00 | 49.92673 | 14.30082 | 16937 ft | 378 kts | 139° |